Time;durP1;ratioP1;P1;durP2;ratioP2;P2;SDS_P1;SDS_P2;PMS_P1;PMS_P2;Temp;Humidity;BMP_temperature;BMP_pressure;BME280_temperature;BME280_humidity;BME280_pressure;Samples;Min_cycle;Max_cycle;Signal;HPM_P1;HPM_P2
2022/03/05 00:00:50;;;;;;;;;;;;;;;;;;6238834;23;20277;-85
2022/03/05 00:03:19;;;;;;;;;;;;;;;;;;6213403;23;19930;-85
2022/03/05 00:05:46;;;;;;;;;;;;;;;;;;6215210;23;19920;-85
2022/03/05 00:08:17;;;;;;;;;;;;;;;;;;6239938;23;20053;-86
2022/03/05 00:10:44;;;;;;;;;;;;;;;;;;6240196;23;19919;-85
2022/03/05 00:13:14;;;;;;;;;;;;;;;;;;6214253;23;19943;-85
2022/03/05 00:15:45;;;;;;;;;;;;;;;;;;6239691;23;19986;-85
2022/03/05 00:18:12;;;;;;;;;;;;;;;;;;6239954;23;20595;-85
2022/03/05 00:20:39;;;;;;;;;;;;;;;;;;6239791;23;20237;-86
2022/03/05 00:23:07;;;;;;;;;;;;;;;;;;6214767;23;19947;-85
2022/03/05 00:25:37;;;;;;;;;;;;;;;;;;6239428;23;19951;-85
2022/03/05 00:28:10;;;;;;;;;;;;;;;;;;6213901;23;19923;-85
2022/03/05 00:30:47;;;;;;;;;;;;;;;;;;;;;
2022/03/05 00:33:19;;;;;;;;;;;;;;;;;;6213095;23;19927;-85
2022/03/05 00:35:50;;;;;;;;;;;;;;;;;;6239168;23;20363;-85
2022/03/05 00:38:21;;;;;;;;;;;;;;;;;;6236107;23;19959;-85
2022/03/05 00:40:48;;;;;;;;;;;;;;;;;;6238307;23;19986;-85
2022/03/05 00:43:15;;;;;;;;;;;;;;;;;;6210870;23;19922;-86
2022/03/05 00:45:54;;;;;;;;;;;;;;;;;;6214114;23;19965;-86
2022/03/05 00:48:21;;;;;;;;;;;;;;;;;;6237834;22;19920;-86
2022/03/05 00:50:51;;;;;;;;;;;;;;;;;;6238082;23;19966;-86
2022/03/05 00:53:21;;;;;;;;;;;;;;;;;;6213876;23;19970;-85
2022/03/05 00:55:51;;;;;;;;;;;;;;;;;;6252725;22;19919;-85
2022/03/05 00:58:21;;;;;;;;;;;;;;;;;;6238475;23;19930;-85
2022/03/05 01:00:52;;;;;;;;;;;;;;;;;;6213127;23;19938;-85
2022/03/05 01:03:22;;;;;;;;;;;;;;;;;;6213485;23;20140;-85
2022/03/05 01:05:50;;;;;;;;;;;;;;;;;;6212620;23;19927;-85
2022/03/05 01:08:35;;;;;;;;;;;;;;;;;;6213074;23;20295;-85
2022/03/05 01:11:08;;;;;;;;;;;;;;;;;;6213160;23;19920;-86
2022/03/05 01:13:39;;;;;;;;;;;;;;;;;;6235188;23;20041;-85
2022/03/05 01:16:12;;;;;;;;;;;;;;;;;;6263231;22;19946;-86
2022/03/05 01:18:40;;;;;;;;;;;;;;;;;;6177473;23;20280;-86
2022/03/05 01:21:09;;;;;;;;;;;;;;;;;;6152541;23;19916;-85
2022/03/05 01:23:36;;;;;;;;;;;;;;;;;;6177574;23;19934;-86
2022/03/05 01:26:05;;;;;;;;;;;;;;;;;;6127519;23;19987;-85
2022/03/05 01:28:32;;;;;;;;;;;;;;;;;;6152637;23;19920;-86
2022/03/05 01:30:59;;;;;;;;;;;;;;;;;;6152338;23;19939;-86
2022/03/05 01:33:45;;;;;;;;;;;;;;;;;;6154521;23;19994;-85
2022/03/05 01:36:12;;;;;;;;;;;;;;;;;;6152764;23;20451;-86
2022/03/05 01:38:39;;;;;;;;;;;;;;;;;;6177375;23;19925;-85
2022/03/05 01:41:18;;;;;;;;;;;;;;;;;;6174034;23;19966;-85
2022/03/05 01:43:45;;;;;;;;;;;;;;;;;;6148093;23;19920;-85
2022/03/05 01:46:11;;;;;;;;;;;;;;;;;;6173477;23;20012;-86
2022/03/05 01:48:51;;;;;;;;;;;;;;;;;;6159310;23;19922;-85
2022/03/05 01:51:21;;;;;;;;;;;;;;;;;;6234164;23;19924;-86
2022/03/05 01:53:51;;;;;;;;;;;;;;;;;;6236059;23;20259;-86
2022/03/05 01:56:30;;;;;;;;;;;;;;;;;;6260214;22;20521;-85
2022/03/05 01:59:01;;;;;;;;;;;;;;;;;;6235189;23;19919;-85
2022/03/05 02:01:27;;;;;;;;;;;;;;;;;;6225706;23;19981;-85
2022/03/05 02:03:54;;;;;;;;;;;;;;;;;;6197083;23;19919;-85
2022/03/05 02:06:37;;;;;;;;;;;;;;;;;;6114195;23;20516;-85
2022/03/05 02:09:14;;;;;;;;;;;;;;;;;;6068330;23;19927;-85
2022/03/05 02:11:56;;;;;;;;;;;;;;;;;;6089105;23;19976;-85
2022/03/05 02:14:23;;;;;;;;;;;;;;;;;;6065344;23;19920;-85
2022/03/05 02:17:06;;;;;;;;;;;;;;;;;;6104297;23;20016;-85
2022/03/05 02:19:36;;;;;;;;;;;;;;;;;;6089076;23;19920;-86
2022/03/05 02:22:06;;;;;;;;;;;;;;;;;;6087645;23;19921;-85
2022/03/05 02:24:48;;;;;;;;;;;;;;;;;;6056917;23;19926;-85
2022/03/05 02:27:25;;;;;;;;;;;;;;;;;;6056292;23;20012;-85
2022/03/05 02:29:56;;;;;;;;;;;;;;;;;;6056170;23;20063;-85
2022/03/05 02:32:25;;;;;;;;;;;;;;;;;;6055836;23;19962;-86
2022/03/05 02:35:04;;;;;;;;;;;;;;;;;;6009723;23;19969;-85
2022/03/05 02:37:33;;;;;;;;;;;;;;;;;;6041808;23;19928;-86
2022/03/05 02:40:04;;;;;;;;;;;;;;;;;;6060805;23;20048;-86
2022/03/05 02:42:34;;;;;;;;;;;;;;;;;;6060667;23;19929;-86
2022/03/05 02:45:04;;;;;;;;;;;;;;;;;;6060804;23;19921;-86
2022/03/05 02:47:35;;;;;;;;;;;;;;;;;;6060410;23;19932;-85
2022/03/05 02:50:02;;;;;;;;;;;;;;;;;;6084171;23;20007;-85
2022/03/05 02:52:43;;;;;;;;;;;;;;;;;;6084864;23;20230;-85
2022/03/05 02:55:13;;;;;;;;;;;;;;;;;;6056811;23;20554;-85
2022/03/05 02:57:45;;;;;;;;;;;;;;;;;;6063789;23;19941;-86
2022/03/05 03:00:15;;;;;;;;;;;;;;;;;;6113234;23;19921;-86
2022/03/05 03:02:45;;;;;;;;;;;;;;;;;;6123467;23;19928;-86
2022/03/05 03:05:24;;;;;;;;;;;;;;;;;;6147109;23;19987;-86
2022/03/05 03:07:51;;;;;;;;;;;;;;;;;;6160667;23;19989;-85
2022/03/05 03:10:23;;;;;;;;;;;;;;;;;;6210613;23;20253;-86
2022/03/05 03:12:54;;;;;;;;;;;;;;;;;;6209821;23;19966;-86
2022/03/05 03:15:20;;;;;;;;;;;;;;;;;;6209275;23;19978;-85
2022/03/05 03:17:47;;;;;;;;;;;;;;;;;;6208539;23;20310;-85
2022/03/05 03:20:15;;;;;;;;;;;;;;;;;;6169858;23;19939;-85
2022/03/05 03:22:43;;;;;;;;;;;;;;;;;;6173203;23;19920;-86
2022/03/05 03:25:13;;;;;;;;;;;;;;;;;;6147514;23;19998;-86
2022/03/05 03:27:41;;;;;;;;;;;;;;;;;;6124477;23;19960;-85
2022/03/05 03:30:07;;;;;;;;;;;;;;;;;;6124282;23;20019;-86
2022/03/05 03:32:39;;;;;;;;;;;;;;;;;;6175300;23;19924;-85
2022/03/05 03:35:05;;;;;;;;;;;;;;;;;;6122428;23;19920;-85
2022/03/05 03:37:48;;;;;;;;;;;;;;;;;;6174004;23;19999;-85
2022/03/05 03:40:14;;;;;;;;;;;;;;;;;;6123558;23;19958;-85
2022/03/05 03:42:55;;;;;;;;;;;;;;;;;;6205185;23;19990;-85
2022/03/05 03:45:32;;;;;;;;;;;;;;;;;;6131101;23;20466;-85
2022/03/05 03:48:01;;;;;;;;;;;;;;;;;;6154979;23;19926;-86
2022/03/05 03:50:32;;;;;;;;;;;;;;;;;;6178624;23;19916;-85
2022/03/05 03:52:59;;;;;;;;;;;;;;;;;;6226382;23;20386;-85
2022/03/05 03:55:28;;;;;;;;;;;;;;;;;;6212917;23;20025;-85
2022/03/05 03:58:00;;;;;;;;;;;;;;;;;;6194073;23;19919;-85
2022/03/05 04:03:17;;;;;;;;;;;;;;;;;;6237671;23;19934;-86
2022/03/05 04:05:55;;;;;;;;;;;;;;;;;;;;;
2022/03/05 04:11:13;;;;;;;;;;;;;;;;;;6209431;23;19922;-85
2022/03/05 04:14:10;;;;;;;;;;;;;;;;;;6173856;23;19927;-85
2022/03/05 04:16:46;;;;;;;;;;;;;;;;;;6144435;23;19952;-85
2022/03/05 04:19:28;;;;;;;;;;;;;;;;;;6075685;23;19936;-85
2022/03/05 04:21:57;;;;;;;;;;;;;;;;;;6070396;23;19976;-85
2022/03/05 04:24:30;;;;;;;;;;;;;;;;;;6120991;23;19920;-85
2022/03/05 04:27:12;;;;;;;;;;;;;;;;;;6096918;23;20124;-85
2022/03/05 04:29:49;;;;;;;;;;;;;;;;;;6121053;23;19928;-85
2022/03/05 04:32:34;;;;;;;;;;;;;;;;;;6144359;23;19985;-85
2022/03/05 04:35:01;;;;;;;;;;;;;;;;;;6169297;23;19999;-85
2022/03/05 04:37:28;;;;;;;;;;;;;;;;;;6095280;23;19931;-85
2022/03/05 04:39:55;;;;;;;;;;;;;;;;;;6095266;23;20732;-85
2022/03/05 04:42:26;;;;;;;;;;;;;;;;;;6170102;23;19971;-85
2022/03/05 04:44:53;;;;;;;;;;;;;;;;;;6169694;23;19973;-85
2022/03/05 04:47:21;;;;;;;;;;;;;;;;;;6119539;23;20346;-85
2022/03/05 04:49:48;;;;;;;;;;;;;;;;;;6095091;23;20019;-85
2022/03/05 04:52:19;;;;;;;;;;;;;;;;;;6117013;23;19960;-85
2022/03/05 04:54:47;;;;;;;;;;;;;;;;;;6175407;23;19920;-85
2022/03/05 04:57:15;;;;;;;;;;;;;;;;;;6173685;23;20000;-85
2022/03/05 04:59:54;;;;;;;;;;;;;;;;;;6184034;23;19984;-85
2022/03/05 05:02:24;;;;;;;;;;;;;;;;;;6167088;23;20404;-85
2022/03/05 05:04:51;;;;;;;;;;;;;;;;;;6172567;23;19916;-85
2022/03/05 05:07:33;;;;;;;;;;;;;;;;;;6114208;23;19928;-85
2022/03/05 05:10:17;;;;;;;;;;;;;;;;;;6114207;23;19917;-85
2022/03/05 05:12:45;;;;;;;;;;;;;;;;;;6089411;23;19978;-85
2022/03/05 05:15:38;;;;;;;;;;;;;;;;;;6125193;23;20176;-85
2022/03/05 05:18:06;;;;;;;;;;;;;;;;;;6089906;23;19917;-85
2022/03/05 05:20:32;;;;;;;;;;;;;;;;;;6089719;23;20408;-85
2022/03/05 05:22:59;;;;;;;;;;;;;;;;;;6099434;23;19923;-85
2022/03/05 05:25:30;;;;;;;;;;;;;;;;;;6148314;23;20377;-85
2022/03/05 05:27:56;;;;;;;;;;;;;;;;;;6147087;23;20157;-85
2022/03/05 05:30:31;;;;;;;;;;;;;;;;;;6126783;23;19916;-85
2022/03/05 05:33:13;;;;;;;;;;;;;;;;;;6126077;23;19924;-85
2022/03/05 05:35:40;;;;;;;;;;;;;;;;;;6148525;23;19924;-84
2022/03/05 05:38:11;;;;;;;;;;;;;;;;;;6191955;23;19920;-85
2022/03/05 05:40:38;;;;;;;;;;;;;;;;;;6210425;23;19951;-84
2022/03/05 05:43:06;;;;;;;;;;;;;;;;;;6162801;23;19970;-85
2022/03/05 05:45:41;;;;;;;;;;;;;;;;;;6185614;23;19924;-85
2022/03/05 05:48:07;;;;;;;;;;;;;;;;;;6184764;23;20643;-85
2022/03/05 05:50:36;;;;;;;;;;;;;;;;;;6210550;23;19973;-85
2022/03/05 05:53:09;;;;;;;;;;;;;;;;;;6185865;23;19919;-85
2022/03/05 05:55:38;;;;;;;;;;;;;;;;;;6210131;23;20248;-85
2022/03/05 05:58:18;;;;;;;;;;;;;;;;;;6214075;23;19920;-85
2022/03/05 06:00:45;;;;;;;;;;;;;;;;;;6235470;22;19957;-84
2022/03/05 06:03:11;;;;;;;;;;;;;;;;;;6203249;23;20702;-86
2022/03/05 06:05:55;;;;;;;;;;;;;;;;;;6203566;23;19927;-85
2022/03/05 06:08:25;;;;;;;;;;;;;;;;;;6203527;23;19954;-85
2022/03/05 06:10:58;;;;;;;;;;;;;;;;;;6154332;23;19919;-86
2022/03/05 06:13:25;;;;;;;;;;;;;;;;;;6152883;23;20311;-85
2022/03/05 06:16:01;;;;;;;;;;;;;;;;;;6154118;23;19991;-85
2022/03/05 06:18:29;;;;;;;;;;;;;;;;;;6177716;23;19965;-85
2022/03/05 06:21:05;;;;;;;;;;;;;;;;;;6145646;23;19920;-85
2022/03/05 06:23:38;;;;;;;;;;;;;;;;;;6177573;23;20443;-86
2022/03/05 06:26:06;;;;;;;;;;;;;;;;;;6153004;23;20019;-85
2022/03/05 06:28:36;;;;;;;;;;;;;;;;;;6152238;23;20477;-85
2022/03/05 06:31:04;;;;;;;;;;;;;;;;;;6149377;23;20342;-85
2022/03/05 06:33:49;;;;;;;;;;;;;;;;;;6223178;22;20673;-85
2022/03/05 06:36:20;;;;;;;;;;;;;;;;;;6215687;22;20478;-84
2022/03/05 06:38:47;;;;;;;;;;;;;;;;;;6241145;22;20319;-85
2022/03/05 06:41:16;;;;;;;;;;;;;;;;;;6239638;22;20291;-85
2022/03/05 06:43:43;;;;;;;;;;;;;;;;;;6214184;22;19919;-86
2022/03/05 06:46:14;;;;;;;;;;;;;;;;;;6215071;22;19972;-85
2022/03/05 06:48:46;;;;;;;;;;;;;;;;;;6239926;22;19919;-86
2022/03/05 06:51:14;;;;;;;;;;;;;;;;;;6266911;22;19977;-86
2022/03/05 06:53:41;;;;;;;;;;;;;;;;;;6239521;22;19926;-85
2022/03/05 06:56:23;;;;;;;;;;;;;;;;;;6243754;22;20575;-85
2022/03/05 06:58:53;;;;;;;;;;;;;;;;;;6239925;22;19968;-85
2022/03/05 07:01:21;;;;;;;;;;;;;;;;;;6266051;22;19919;-85
2022/03/05 07:03:47;;;;;;;;;;;;;;;;;;6239817;22;20320;-85
2022/03/05 07:06:17;;;;;;;;;;;;;;;;;;6239678;22;19934;-85
2022/03/05 07:09:02;;;;;;;;;;;;;;;;;;6243959;22;19976;-85
2022/03/05 07:11:35;;;;;;;;;;;;;;;;;;6215856;22;19930;-85
2022/03/05 07:14:06;;;;;;;;;;;;;;;;;;6241079;22;19972;-85
2022/03/05 07:16:33;;;;;;;;;;;;;;;;;;6216033;22;19919;-86
2022/03/05 07:18:59;;;;;;;;;;;;;;;;;;6178709;23;19920;-85
2022/03/05 07:21:30;;;;;;;;;;;;;;;;;;6203570;23;19920;-85
2022/03/05 07:24:02;;;;;;;;;;;;;;;;;;6179614;23;20006;-85
2022/03/05 07:26:29;;;;;;;;;;;;;;;;;;6201908;23;19948;-85
2022/03/05 07:28:56;;;;;;;;;;;;;;;;;;6207799;23;20393;-85
2022/03/05 07:31:24;;;;;;;;;;;;;;;;;;6205342;23;19967;-85
2022/03/05 07:33:52;;;;;;;;;;;;;;;;;;6203111;23;19920;-85
2022/03/05 07:36:34;;;;;;;;;;;;;;;;;;6194208;23;19931;-85
2022/03/05 07:39:01;;;;;;;;;;;;;;;;;;6149639;23;19920;-86
2022/03/05 07:41:31;;;;;;;;;;;;;;;;;;6174448;23;19982;-86
2022/03/05 07:43:57;;;;;;;;;;;;;;;;;;6090595;23;19921;-86
2022/03/05 07:46:24;;;;;;;;;;;;;;;;;;6090097;23;19955;-85
2022/03/05 07:48:53;;;;;;;;;;;;;;;;;;6114984;23;19928;-86
2022/03/05 07:51:24;;;;;;;;;;;;;;;;;;6067263;23;19925;-86
2022/03/05 07:54:08;;;;;;;;;;;;;;;;;;6057657;23;20343;-85
2022/03/05 07:56:37;;;;;;;;;;;;;;;;;;6034029;23;19941;-85
2022/03/05 07:59:23;;;;;;;;;;;;;;;;;;6004910;23;19932;-85
2022/03/05 08:02:03;;;;;;;;;;;;;;;;;;5957524;23;19961;-85
2022/03/05 08:04:46;;;;;;;;;;;;;;;;;;6027190;23;20236;-86
2022/03/05 08:07:13;;;;;;;;;;;;;;;;;;6052031;23;19960;-86
2022/03/05 08:09:44;;;;;;;;;;;;;;;;;;6066602;23;19928;-86
2022/03/05 08:12:15;;;;;;;;;;;;;;;;;;6089500;23;19999;-87
2022/03/05 08:14:44;;;;;;;;;;;;;;;;;;6089147;23;19920;-86
2022/03/05 08:17:11;;;;;;;;;;;;;;;;;;6147828;23;19920;-86
2022/03/05 08:19:39;;;;;;;;;;;;;;;;;;6149585;23;20329;-86
2022/03/05 08:22:06;;;;;;;;;;;;;;;;;;6147333;23;19916;-86
2022/03/05 08:24:33;;;;;;;;;;;;;;;;;;6162608;23;19920;-86
2022/03/05 08:26:59;;;;;;;;;;;;;;;;;;6182822;23;20312;-87
2022/03/05 08:29:26;;;;;;;;;;;;;;;;;;6206426;23;19919;-87
2022/03/05 08:31:54;;;;;;;;;;;;;;;;;;6170817;23;19924;-86
2022/03/05 08:34:33;;;;;;;;;;;;;;;;;;6228227;23;19927;-86
2022/03/05 08:37:00;;;;;;;;;;;;;;;;;;6207980;23;19927;-87
2022/03/05 08:39:28;;;;;;;;;;;;;;;;;;6186295;23;19926;-87
2022/03/05 08:41:56;;;;;;;;;;;;;;;;;;6185564;23;19987;-87
2022/03/05 08:44:39;;;;;;;;;;;;;;;;;;6205857;23;19965;-87
2022/03/05 08:47:10;;;;;;;;;;;;;;;;;;6153769;23;19920;-87
2022/03/05 08:49:41;;;;;;;;;;;;;;;;;;6178203;23;19916;-86
2022/03/05 08:52:08;;;;;;;;;;;;;;;;;;6154993;23;19923;-87
2022/03/05 08:54:37;;;;;;;;;;;;;;;;;;6204513;23;19974;-86
2022/03/05 08:57:16;;;;;;;;;;;;;;;;;;6202787;23;19920;-86
2022/03/05 08:59:46;;;;;;;;;;;;;;;;;;6151453;23;19982;-86
2022/03/05 09:02:14;;;;;;;;;;;;;;;;;;6173748;23;20292;-86
2022/03/05 09:04:41;;;;;;;;;;;;;;;;;;6171878;23;19955;-86
2022/03/05 09:07:16;;;;;;;;;;;;;;;;;;6148599;23;19952;-87
2022/03/05 09:09:44;;;;;;;;;;;;;;;;;;6176735;23;19922;-86
2022/03/05 09:12:14;;;;;;;;;;;;;;;;;;6147870;23;19924;-87
2022/03/05 09:14:42;;;;;;;;;;;;;;;;;;6158994;23;20315;-87
2022/03/05 09:17:08;;;;;;;;;;;;;;;;;;6214352;23;19919;-87
2022/03/05 09:19:36;;;;;;;;;;;;;;;;;;6215226;23;19916;-87
2022/03/05 09:22:09;;;;;;;;;;;;;;;;;;6215752;23;19920;-87
2022/03/05 09:24:42;;;;;;;;;;;;;;;;;;6240556;23;19919;-87
2022/03/05 09:27:09;;;;;;;;;;;;;;;;;;6211960;23;20291;-87
2022/03/05 09:29:37;;;;;;;;;;;;;;;;;;6213288;23;20611;-87
2022/03/05 09:32:04;;;;;;;;;;;;;;;;;;6236941;23;19963;-87
2022/03/05 09:34:32;;;;;;;;;;;;;;;;;;6212286;23;19919;-87
2022/03/05 09:37:03;;;;;;;;;;;;;;;;;;6239675;23;19958;-87
2022/03/05 09:39:31;;;;;;;;;;;;;;;;;;6239286;23;19967;-87
2022/03/05 09:41:58;;;;;;;;;;;;;;;;;;6236252;23;19916;-88
2022/03/05 09:44:25;;;;;;;;;;;;;;;;;;6240255;23;20292;-88
2022/03/05 09:46:56;;;;;;;;;;;;;;;;;;6213674;23;19942;-87
2022/03/05 09:49:23;;;;;;;;;;;;;;;;;;6213163;23;19919;-87
2022/03/05 09:51:50;;;;;;;;;;;;;;;;;;6213419;23;19974;-87
2022/03/05 09:54:20;;;;;;;;;;;;;;;;;;6237759;23;19923;-87
2022/03/05 09:56:49;;;;;;;;;;;;;;;;;;6260018;22;19942;-88
2022/03/05 09:59:17;;;;;;;;;;;;;;;;;;6237053;23;19924;-88
2022/03/05 10:01:44;;;;;;;;;;;;;;;;;;6243317;22;20214;-87
2022/03/05 10:04:14;;;;;;;;;;;;;;;;;;6242032;22;19926;-88
2022/03/05 10:06:41;;;;;;;;;;;;;;;;;;6217379;22;19923;-88
2022/03/05 10:09:08;;;;;;;;;;;;;;;;;;6218220;22;20356;-87
2022/03/05 10:11:45;;;;;;;;;;;;;;;;;;6243810;22;19931;-87
2022/03/05 10:14:12;;;;;;;;;;;;;;;;;;6242572;22;20397;-87
2022/03/05 10:16:40;;;;;;;;;;;;;;;;;;6241867;22;19926;-88
2022/03/05 10:19:07;;;;;;;;;;;;;;;;;;6215769;22;19919;-88
2022/03/05 10:21:43;;;;;;;;;;;;;;;;;;6216313;22;19919;-89
2022/03/05 10:24:10;;;;;;;;;;;;;;;;;;6217609;22;20287;-89
2022/03/05 10:27:00;;;;;;;;;;;;;;;;;;6248177;22;19990;-89
2022/03/05 10:29:27;;;;;;;;;;;;;;;;;;6219729;22;20290;-89
2022/03/05 10:32:03;;;;;;;;;;;;;;;;;;6242230;22;20007;-88
2022/03/05 10:34:51;;;;;;;;;;;;;;;;;;6223865;22;20185;-89
2022/03/05 10:37:18;;;;;;;;;;;;;;;;;;6243030;22;19927;-88
2022/03/05 10:39:46;;;;;;;;;;;;;;;;;;6242200;22;19942;-86
2022/03/05 10:42:13;;;;;;;;;;;;;;;;;;6216973;22;19955;-86
2022/03/05 10:44:43;;;;;;;;;;;;;;;;;;6242373;22;19975;-87
2022/03/05 10:47:15;;;;;;;;;;;;;;;;;;6243729;22;20010;-87
2022/03/05 10:49:42;;;;;;;;;;;;;;;;;;6241388;22;19915;-88
2022/03/05 10:52:10;;;;;;;;;;;;;;;;;;6241891;22;20247;-89
2022/03/05 10:54:51;;;;;;;;;;;;;;;;;;6205229;23;20271;-88
2022/03/05 10:57:18;;;;;;;;;;;;;;;;;;6204152;23;20288;-88
2022/03/05 10:59:49;;;;;;;;;;;;;;;;;;6158007;23;19924;-88
2022/03/05 11:02:29;;;;;;;;;;;;;;;;;;6209335;23;19916;-88
2022/03/05 11:05:00;;;;;;;;;;;;;;;;;;6171139;23;20263;-88
2022/03/05 11:07:41;;;;;;;;;;;;;;;;;;6149838;23;19991;-88
2022/03/05 11:10:15;;;;;;;;;;;;;;;;;;6125960;23;20022;-87
2022/03/05 11:12:56;;;;;;;;;;;;;;;;;;;;;
2022/03/05 11:15:44;;;;;;;;;;;;;;;;;;6145872;23;20460;-87
2022/03/05 11:18:24;;;;;;;;;;;;;;;;;;;;;
2022/03/05 11:20:51;;;;;;;;;;;;;;;;;;6131120;23;19917;-87
2022/03/05 11:23:43;;;;;;;;;;;;;;;;;;;;;
2022/03/05 11:26:49;;;;;;;;;;;;;;;;;;6162951;23;20319;-87
2022/03/05 11:29:13;;;;;;;;;;;;;;;;;;6139714;23;19920;-87
2022/03/05 11:31:40;;;;;;;;;;;;;;;;;;6149369;23;19924;-87
2022/03/05 11:34:10;;;;;;;;;;;;;;;;;;6149667;23;19960;-87
2022/03/05 11:36:40;;;;;;;;;;;;;;;;;;6149720;23;19991;-87
2022/03/05 11:39:09;;;;;;;;;;;;;;;;;;6229601;22;19958;-87
2022/03/05 11:42:02;;;;;;;;;;;;;;;;;;;;;
2022/03/05 11:44:44;;;;;;;;;;;;;;;;;;6204944;23;19919;-86
2022/03/05 11:47:30;;;;;;;;;;;;;;;;;;6184086;23;19983;-87
2022/03/05 11:49:58;;;;;;;;;;;;;;;;;;6206818;23;19947;-86
2022/03/05 11:52:27;;;;;;;;;;;;;;;;;;6204256;23;20051;-87
2022/03/05 11:55:16;;;;;;;;;;;;;;;;;;6182830;23;20356;-88
2022/03/05 11:57:43;;;;;;;;;;;;;;;;;;6204649;23;20645;-86
2022/03/05 12:00:09;;;;;;;;;;;;;;;;;;6145568;23;20715;-87
2022/03/05 12:02:43;;;;;;;;;;;;;;;;;;6205501;23;19926;-87
2022/03/05 12:05:08;;;;;;;;;;;;;;;;;;6180827;23;19947;-87
2022/03/05 12:07:38;;;;;;;;;;;;;;;;;;6180901;23;19924;-86
2022/03/05 12:10:05;;;;;;;;;;;;;;;;;;6179334;23;19924;-86
2022/03/05 12:12:34;;;;;;;;;;;;;;;;;;6180322;23;19967;-87
2022/03/05 12:15:03;;;;;;;;;;;;;;;;;;6194589;22;19919;-86
2022/03/05 12:17:37;;;;;;;;;;;;;;;;;;6238608;22;19915;-86
2022/03/05 12:20:29;;;;;;;;;;;;;;;;;;6200162;23;19919;-88
2022/03/05 12:23:06;;;;;;;;;;;;;;;;;;6181161;23;19919;-87
2022/03/05 12:25:45;;;;;;;;;;;;;;;;;;6206510;23;19935;-87
2022/03/05 12:28:12;;;;;;;;;;;;;;;;;;6156269;23;19948;-86
2022/03/05 12:30:44;;;;;;;;;;;;;;;;;;6156433;23;19942;-88
2022/03/05 12:33:13;;;;;;;;;;;;;;;;;;6183205;23;20556;-87
2022/03/05 12:35:48;;;;;;;;;;;;;;;;;;6183145;23;20042;-88
2022/03/05 12:38:17;;;;;;;;;;;;;;;;;;6204168;23;20324;-87
2022/03/05 12:40:50;;;;;;;;;;;;;;;;;;6157253;23;19919;-87
2022/03/05 12:43:26;;;;;;;;;;;;;;;;;;6182782;23;19927;-87
2022/03/05 12:46:00;;;;;;;;;;;;;;;;;;6180859;23;19966;-87
2022/03/05 12:48:36;;;;;;;;;;;;;;;;;;6204274;23;20266;-87
2022/03/05 12:51:03;;;;;;;;;;;;;;;;;;6158405;23;19920;-88
2022/03/05 12:53:34;;;;;;;;;;;;;;;;;;6183272;23;19999;-87
2022/03/05 12:56:06;;;;;;;;;;;;;;;;;;6183523;23;19924;-88
2022/03/05 12:58:33;;;;;;;;;;;;;;;;;;6186087;22;19920;-88
2022/03/05 13:01:01;;;;;;;;;;;;;;;;;;6245106;22;19934;-90
2022/03/05 13:03:36;;;;;;;;;;;;;;;;;;6272253;22;19933;-89
2022/03/05 13:06:04;;;;;;;;;;;;;;;;;;6221065;22;19998;-89
2022/03/05 13:08:43;;;;;;;;;;;;;;;;;;6274343;22;19919;-89
2022/03/05 13:11:10;;;;;;;;;;;;;;;;;;6222161;22;20527;-89
2022/03/05 13:13:38;;;;;;;;;;;;;;;;;;6247127;22;19923;-88
2022/03/05 13:16:09;;;;;;;;;;;;;;;;;;6220659;22;19950;-88
2022/03/05 13:18:36;;;;;;;;;;;;;;;;;;6220621;22;19980;-90
2022/03/05 13:21:07;;;;;;;;;;;;;;;;;;6221912;22;19925;-91
2022/03/05 13:23:34;;;;;;;;;;;;;;;;;;6222117;22;20327;-88
2022/03/05 13:26:00;;;;;;;;;;;;;;;;;;6219971;22;20255;-87
2022/03/05 13:28:28;;;;;;;;;;;;;;;;;;6246894;22;19934;-88
2022/03/05 13:31:07;;;;;;;;;;;;;;;;;;6250155;22;19929;-89
2022/03/05 13:33:34;;;;;;;;;;;;;;;;;;6220996;22;19926;-89
2022/03/05 13:36:00;;;;;;;;;;;;;;;;;;6247082;22;19926;-89
2022/03/05 13:38:28;;;;;;;;;;;;;;;;;;6222186;22;20410;-89
2022/03/05 13:40:55;;;;;;;;;;;;;;;;;;6246684;22;19954;-89
2022/03/05 13:43:28;;;;;;;;;;;;;;;;;;6270957;22;19919;-89
2022/03/05 13:45:58;;;;;;;;;;;;;;;;;;6246628;22;19990;-88
2022/03/05 13:48:25;;;;;;;;;;;;;;;;;;6245997;22;20485;-89
2022/03/05 13:50:53;;;;;;;;;;;;;;;;;;6220709;22;20008;-90
2022/03/05 13:53:38;;;;;;;;;;;;;;;;;;6251751;22;20464;-91
2022/03/05 13:56:06;;;;;;;;;;;;;;;;;;6221202;22;19915;-90
2022/03/05 13:58:34;;;;;;;;;;;;;;;;;;6246490;22;19915;-90
2022/03/05 14:01:01;;;;;;;;;;;;;;;;;;6230072;22;19924;-90
2022/03/05 14:03:31;;;;;;;;;;;;;;;;;;6245720;22;19927;-90
2022/03/05 14:05:58;;;;;;;;;;;;;;;;;;6244995;22;19925;-88
2022/03/05 14:08:26;;;;;;;;;;;;;;;;;;6246144;22;20276;-88
2022/03/05 14:10:53;;;;;;;;;;;;;;;;;;6246401;22;19984;-89
2022/03/05 14:13:26;;;;;;;;;;;;;;;;;;6246040;22;19923;-88
2022/03/05 14:16:01;;;;;;;;;;;;;;;;;;6270851;22;19915;-89
2022/03/05 14:18:27;;;;;;;;;;;;;;;;;;6245421;22;20550;-89
2022/03/05 14:20:54;;;;;;;;;;;;;;;;;;6246613;22;19915;-89
2022/03/05 14:23:37;;;;;;;;;;;;;;;;;;6273932;22;19995;-89
2022/03/05 14:26:04;;;;;;;;;;;;;;;;;;6245290;22;20339;-89
2022/03/05 14:28:32;;;;;;;;;;;;;;;;;;6245862;22;19972;-90
2022/03/05 14:30:59;;;;;;;;;;;;;;;;;;6245627;22;19915;-89
2022/03/05 14:33:42;;;;;;;;;;;;;;;;;;6272068;22;20291;-89
2022/03/05 14:36:10;;;;;;;;;;;;;;;;;;6243293;22;19986;-89
2022/03/05 14:38:43;;;;;;;;;;;;;;;;;;6243791;22;19980;-89
2022/03/05 14:41:10;;;;;;;;;;;;;;;;;;6244103;22;19919;-89
2022/03/05 14:43:37;;;;;;;;;;;;;;;;;;6243062;22;19963;-89
2022/03/05 14:46:04;;;;;;;;;;;;;;;;;;6242247;22;19934;-89
2022/03/05 14:48:31;;;;;;;;;;;;;;;;;;6243197;22;20242;-89
2022/03/05 14:51:14;;;;;;;;;;;;;;;;;;6236363;23;20009;-89
2022/03/05 14:53:44;;;;;;;;;;;;;;;;;;6211442;23;20255;-90
2022/03/05 14:56:12;;;;;;;;;;;;;;;;;;6212489;23;19927;-89
2022/03/05 14:58:38;;;;;;;;;;;;;;;;;;6211645;23;19938;-89
2022/03/05 15:01:05;;;;;;;;;;;;;;;;;;6235359;23;19924;-90
2022/03/05 15:03:31;;;;;;;;;;;;;;;;;;6186430;23;19919;-90
2022/03/05 15:05:59;;;;;;;;;;;;;;;;;;6211670;23;19950;-90
2022/03/05 15:08:26;;;;;;;;;;;;;;;;;;6211473;23;19920;-89
2022/03/05 15:10:53;;;;;;;;;;;;;;;;;;6212697;23;20225;-89
2022/03/05 15:13:21;;;;;;;;;;;;;;;;;;6209719;23;19931;-88
2022/03/05 15:15:48;;;;;;;;;;;;;;;;;;6187088;23;19922;-89
2022/03/05 15:18:15;;;;;;;;;;;;;;;;;;6212549;23;19922;-89
2022/03/05 15:20:43;;;;;;;;;;;;;;;;;;6213057;23;19920;-88
2022/03/05 15:23:10;;;;;;;;;;;;;;;;;;6206056;23;19919;-90
2022/03/05 15:25:37;;;;;;;;;;;;;;;;;;6191168;23;20287;-89
2022/03/05 15:28:05;;;;;;;;;;;;;;;;;;6240438;23;19986;-88
2022/03/05 15:30:31;;;;;;;;;;;;;;;;;;6240941;23;19962;-89
2022/03/05 15:33:03;;;;;;;;;;;;;;;;;;6241340;23;19924;-89
2022/03/05 15:35:41;;;;;;;;;;;;;;;;;;6197539;23;19998;-88
2022/03/05 15:38:08;;;;;;;;;;;;;;;;;;6243529;22;20077;-89
2022/03/05 15:40:36;;;;;;;;;;;;;;;;;;6242994;23;19916;-90
2022/03/05 15:43:03;;;;;;;;;;;;;;;;;;6241886;23;19919;-89
2022/03/05 15:45:29;;;;;;;;;;;;;;;;;;6243127;23;19916;-88
2022/03/05 15:47:57;;;;;;;;;;;;;;;;;;6242455;23;19942;-89
2022/03/05 15:50:24;;;;;;;;;;;;;;;;;;6192028;23;19920;-89
2022/03/05 15:52:52;;;;;;;;;;;;;;;;;;6242113;23;20332;-88
2022/03/05 15:55:20;;;;;;;;;;;;;;;;;;6191832;23;19926;-89
2022/03/05 15:57:47;;;;;;;;;;;;;;;;;;6241431;23;19919;-88
2022/03/05 16:00:14;;;;;;;;;;;;;;;;;;6241828;23;19934;-90
2022/03/05 16:02:41;;;;;;;;;;;;;;;;;;6221973;22;20324;-91
2022/03/05 16:05:11;;;;;;;;;;;;;;;;;;6221426;22;19919;-91
2022/03/05 16:07:39;;;;;;;;;;;;;;;;;;6223157;22;19947;-91
2022/03/05 16:10:20;;;;;;;;;;;;;;;;;;6274457;22;20323;-90
2022/03/05 16:12:47;;;;;;;;;;;;;;;;;;6247909;22;20291;-90
2022/03/05 16:15:15;;;;;;;;;;;;;;;;;;6247789;22;19915;-90
2022/03/05 16:17:42;;;;;;;;;;;;;;;;;;6222406;22;19919;-90
2022/03/05 16:20:11;;;;;;;;;;;;;;;;;;6221593;22;19949;-91
2022/03/05 16:22:38;;;;;;;;;;;;;;;;;;6248107;22;19972;-91
2022/03/05 16:25:05;;;;;;;;;;;;;;;;;;6221555;22;19936;-91
2022/03/05 16:27:31;;;;;;;;;;;;;;;;;;6272176;22;19916;-90
2022/03/05 16:30:00;;;;;;;;;;;;;;;;;;6245804;22;19926;-91
2022/03/05 16:32:27;;;;;;;;;;;;;;;;;;6220886;22;19919;-90
2022/03/05 16:34:54;;;;;;;;;;;;;;;;;;6246163;22;19919;-92
2022/03/05 16:37:20;;;;;;;;;;;;;;;;;;6245807;22;19950;-91
2022/03/05 16:39:49;;;;;;;;;;;;;;;;;;6246553;22;19964;-90
2022/03/05 16:42:16;;;;;;;;;;;;;;;;;;6219385;22;19915;-90
2022/03/05 16:44:43;;;;;;;;;;;;;;;;;;6243632;22;19932;-91
2022/03/05 16:47:10;;;;;;;;;;;;;;;;;;6218885;22;19955;-89
2022/03/05 16:49:36;;;;;;;;;;;;;;;;;;6243322;22;19946;-89
2022/03/05 16:52:04;;;;;;;;;;;;;;;;;;6243751;22;19926;-90
2022/03/05 16:54:31;;;;;;;;;;;;;;;;;;6244357;22;19946;-90
2022/03/05 16:56:58;;;;;;;;;;;;;;;;;;6219185;22;19990;-91
2022/03/05 16:59:28;;;;;;;;;;;;;;;;;;6244436;22;19934;-90
2022/03/05 17:01:55;;;;;;;;;;;;;;;;;;6243519;22;19923;-90
2022/03/05 17:04:25;;;;;;;;;;;;;;;;;;6218213;22;19919;-90
2022/03/05 17:06:53;;;;;;;;;;;;;;;;;;6243837;22;19990;-90
2022/03/05 17:09:20;;;;;;;;;;;;;;;;;;6244696;22;19926;-90
2022/03/05 17:11:57;;;;;;;;;;;;;;;;;;6245798;22;19930;-89
2022/03/05 17:14:24;;;;;;;;;;;;;;;;;;6219129;22;19922;-89
2022/03/05 17:16:51;;;;;;;;;;;;;;;;;;6242164;22;19926;-89
2022/03/05 17:19:18;;;;;;;;;;;;;;;;;;6242858;22;20356;-89